createdAt,value
2017-01-29T00:00:12.048Z,-4.9
2017-01-29T00:00:30.732Z,-4.9
2017-01-29T00:00:49.389Z,-4.9
2017-01-29T00:01:08.049Z,-4.9
2017-01-29T00:01:26.709Z,-4.9
2017-01-29T00:01:45.362Z,-4.9
2017-01-29T00:02:04.028Z,-4.9
2017-01-29T00:02:22.685Z,-4.9
2017-01-29T00:02:41.342Z,-4.9
2017-01-29T00:02:59.993Z,-4.9
2017-01-29T00:03:18.656Z,-4.9
2017-01-29T00:03:37.314Z,-4.9
2017-01-29T00:03:56.020Z,-4.9
2017-01-29T00:04:14.680Z,-4.9
2017-01-29T00:04:33.343Z,-4.9
2017-01-29T00:04:52.004Z,-4.9
2017-01-29T00:05:10.677Z,-4.9
2017-01-29T00:05:29.359Z,-4.9
2017-01-29T00:05:48.021Z,-4.9
2017-01-29T00:06:06.681Z,-4.9
2017-01-29T00:06:25.336Z,-4.9
2017-01-29T00:06:43.994Z,-5
2017-01-29T00:07:02.652Z,-5
2017-01-29T00:07:21.316Z,-5
2017-01-29T00:07:39.971Z,-5
2017-01-29T00:07:58.623Z,-5
2017-01-29T00:08:17.281Z,-5
2017-01-29T00:08:35.972Z,-5
2017-01-29T00:08:54.623Z,-5
2017-01-29T00:09:13.299Z,-5
2017-01-29T00:09:31.965Z,-5
2017-01-29T00:09:50.624Z,-5
2017-01-29T00:10:09.315Z,-5
2017-01-29T00:10:27.983Z,-5
2017-01-29T00:10:46.639Z,-5
2017-01-29T00:11:05.295Z,-4.9
2017-01-29T00:11:23.951Z,-4.9
2017-01-29T00:11:42.600Z,-4.9
2017-01-29T00:12:01.260Z,-4.8
2017-01-29T00:12:19.923Z,-4.8
2017-01-29T00:12:38.579Z,-4.8
2017-01-29T00:12:57.229Z,-4.7
2017-01-29T00:13:15.919Z,-4.7
2017-01-29T00:13:34.579Z,-4.7
2017-01-29T00:13:53.240Z,-4.7
2017-01-29T00:14:11.898Z,-4.7
2017-01-29T00:14:30.567Z,-4.6
2017-01-29T00:14:49.265Z,-4.7
2017-01-29T00:15:07.927Z,-4.7
2017-01-29T00:15:26.587Z,-4.7
2017-01-29T00:15:45.245Z,-4.7
2017-01-29T00:16:03.906Z,-4.8
2017-01-29T00:16:22.566Z,-4.8
2017-01-29T00:16:41.227Z,-4.8
2017-01-29T00:16:59.887Z,-4.9
2017-01-29T00:17:18.544Z,-4.9
2017-01-29T00:17:37.204Z,-4.9
2017-01-29T00:17:55.888Z,-4.9
2017-01-29T00:18:14.548Z,-4.9
2017-01-29T00:18:33.208Z,-5
2017-01-29T00:18:51.863Z,-5
2017-01-29T00:19:10.518Z,-5
2017-01-29T00:19:29.230Z,-5
2017-01-29T00:19:47.914Z,-5
2017-01-29T00:20:06.572Z,-5
2017-01-29T00:20:25.228Z,-5
2017-01-29T00:20:43.887Z,-5
2017-01-29T00:21:02.550Z,-5
2017-01-29T00:21:21.210Z,-5
2017-01-29T00:21:39.870Z,-5
2017-01-29T00:21:58.529Z,-5.1
2017-01-29T00:22:17.186Z,-5.1
2017-01-29T00:22:35.867Z,-5.2
2017-01-29T00:22:54.516Z,-5.2
2017-01-29T00:23:13.179Z,-5.2
2017-01-29T00:23:31.838Z,-5.2
2017-01-29T00:23:50.498Z,-5.2
2017-01-29T00:24:09.194Z,-5.2
2017-01-29T00:24:27.853Z,-5.2
2017-01-29T00:24:46.511Z,-5.2
2017-01-29T00:25:05.184Z,-5.2
2017-01-29T00:25:23.837Z,-5.2
2017-01-29T00:25:42.503Z,-5.2
2017-01-29T00:26:01.166Z,-5.2
2017-01-29T00:26:19.829Z,-5.2
2017-01-29T00:26:38.479Z,-5.2
2017-01-29T00:26:57.148Z,-5.2
2017-01-29T00:27:15.840Z,-5.2
2017-01-29T00:27:34.496Z,-5.2
2017-01-29T00:27:53.155Z,-5.2
2017-01-29T00:28:11.817Z,-5.3
2017-01-29T00:28:30.479Z,-5.3
2017-01-29T00:28:49.175Z,-5.3
2017-01-29T00:29:07.828Z,-5.3
2017-01-29T00:29:26.489Z,-5.3
2017-01-29T00:29:45.150Z,-5.3
2017-01-29T00:30:03.811Z,-5.3
2017-01-29T00:30:22.484Z,-5.3
2017-01-29T00:30:41.137Z,-5.3
2017-01-29T00:30:59.792Z,-5.3
2017-01-29T00:31:18.449Z,-5.3
2017-01-29T00:31:37.109Z,-5.3
2017-01-29T00:31:55.792Z,-5.3
2017-01-29T00:32:14.453Z,-5.3
2017-01-29T00:32:33.115Z,-5.3
2017-01-29T00:32:51.774Z,-5.3
2017-01-29T00:33:10.427Z,-5.3
2017-01-29T00:33:29.092Z,-5.3
2017-01-29T00:33:47.748Z,-5.3
2017-01-29T00:34:06.411Z,-5.3
2017-01-29T00:34:25.065Z,-5.3
2017-01-29T00:34:43.730Z,-5.3
2017-01-29T00:35:02.386Z,-5.3
2017-01-29T00:35:21.047Z,-5.3
2017-01-29T00:35:39.714Z,-5.3
2017-01-29T00:35:58.378Z,-5.4
2017-01-29T00:36:17.038Z,-5.3
2017-01-29T00:36:35.727Z,-5.3
2017-01-29T00:36:54.386Z,-5.3
2017-01-29T00:37:13.057Z,-5.3
2017-01-29T00:37:31.713Z,-5.3
2017-01-29T00:37:50.371Z,-5.3
2017-01-29T00:38:09.026Z,-5.2
2017-01-29T00:38:27.684Z,-5.2
2017-01-29T00:38:46.345Z,-5.2
2017-01-29T00:39:05.004Z,-5.2
2017-01-29T00:39:23.660Z,-5.2
2017-01-29T00:39:42.324Z,-5.2
2017-01-29T00:40:00.989Z,-5.2
2017-01-29T00:40:19.652Z,-5.2
2017-01-29T00:40:38.306Z,-5.2
2017-01-29T00:40:56.998Z,-5.2
2017-01-29T00:41:15.686Z,-5.2
2017-01-29T00:41:34.339Z,-5.2
2017-01-29T00:41:52.997Z,-5.2
2017-01-29T00:42:11.654Z,-5.2
2017-01-29T00:42:30.316Z,-5.2
2017-01-29T00:42:48.973Z,-5.2
2017-01-29T00:43:07.637Z,-5.2
2017-01-29T00:43:26.302Z,-5.2
2017-01-29T00:43:44.962Z,-5.2
2017-01-29T00:44:03.615Z,-5.2
2017-01-29T00:44:22.273Z,-5.2
2017-01-29T00:44:40.934Z,-5.3
2017-01-29T00:44:59.595Z,-5.3
2017-01-29T00:45:18.258Z,-5.3
2017-01-29T00:45:36.915Z,-5.3
2017-01-29T00:45:55.597Z,-5.2
2017-01-29T00:46:14.259Z,-5.2
2017-01-29T00:46:32.918Z,-5.2
2017-01-29T00:46:51.576Z,-5.2
2017-01-29T00:47:10.240Z,-5.2
2017-01-29T00:47:28.900Z,-5.2
2017-01-29T00:47:47.562Z,-5.2
2017-01-29T00:48:06.221Z,-5.2
2017-01-29T00:48:24.885Z,-5.3
2017-01-29T00:48:43.540Z,-5.3
2017-01-29T00:49:02.208Z,-5.3
2017-01-29T00:49:20.875Z,-5.3
2017-01-29T00:49:39.540Z,-5.4
2017-01-29T00:49:58.216Z,-5.4
2017-01-29T00:50:16.875Z,-5.4
2017-01-29T00:50:35.551Z,-5.4
2017-01-29T00:50:54.214Z,-5.4
2017-01-29T00:51:12.873Z,-5.4
2017-01-29T00:51:31.546Z,-5.3
2017-01-29T00:51:50.200Z,-5.3
2017-01-29T00:52:08.874Z,-5.2
2017-01-29T00:52:27.529Z,-5.2
2017-01-29T00:52:46.188Z,-5.1
2017-01-29T00:53:04.844Z,-5.1
2017-01-29T00:53:23.509Z,-5.1
2017-01-29T00:53:42.179Z,-5.2
2017-01-29T00:54:00.861Z,-5.2
2017-01-29T00:54:19.514Z,-5.2
2017-01-29T00:54:38.177Z,-5.2
2017-01-29T00:54:56.838Z,-5.2
2017-01-29T00:55:15.513Z,-5.3
2017-01-29T00:55:34.167Z,-5.3
2017-01-29T00:55:52.823Z,-5.3
2017-01-29T00:56:11.480Z,-5.3
2017-01-29T00:56:30.140Z,-5.3
2017-01-29T00:56:48.812Z,-5.3
2017-01-29T00:57:07.475Z,-5.3
2017-01-29T00:57:26.134Z,-5.4
2017-01-29T00:57:44.795Z,-5.4
2017-01-29T00:58:03.453Z,-5.4
2017-01-29T00:58:22.111Z,-5.4
2017-01-29T00:58:40.807Z,-5.5
2017-01-29T00:58:59.466Z,-5.5
2017-01-29T00:59:18.125Z,-5.5
2017-01-29T00:59:36.781Z,-5.5
2017-01-29T00:59:55.456Z,-5.5
2017-01-29T01:00:14.129Z,-5.6
2017-01-29T01:00:32.793Z,-5.6
2017-01-29T01:00:51.443Z,-5.7
2017-01-29T01:01:10.102Z,-5.7
2017-01-29T01:01:28.762Z,-5.7
2017-01-29T01:01:47.421Z,-5.7
2017-01-29T01:02:06.099Z,-5.7
2017-01-29T01:02:24.756Z,-5.6
2017-01-29T01:02:43.415Z,-5.5
2017-01-29T01:03:02.071Z,-5.4
2017-01-29T01:03:20.753Z,-5.2
2017-01-29T01:03:39.414Z,-5.2
2017-01-29T01:03:58.077Z,-5.1
2017-01-29T01:04:16.738Z,-5.1
2017-01-29T01:04:35.400Z,-5.1
2017-01-29T01:04:54.101Z,-5
2017-01-29T01:05:12.765Z,-5
2017-01-29T01:05:31.427Z,-5.1
2017-01-29T01:05:50.080Z,-5.1
2017-01-29T01:06:08.748Z,-5.1
2017-01-29T01:06:27.412Z,-5.2
2017-01-29T01:06:46.071Z,-5.1
2017-01-29T01:07:04.726Z,-5.1
2017-01-29T01:07:23.411Z,-5.1
2017-01-29T01:07:42.103Z,-5
2017-01-29T01:08:00.791Z,-5
2017-01-29T01:08:19.449Z,-4.9
2017-01-29T01:08:38.108Z,-5
2017-01-29T01:08:56.773Z,-5
2017-01-29T01:09:15.484Z,-5
2017-01-29T01:09:34.150Z,-5
2017-01-29T01:09:52.815Z,-5
2017-01-29T01:10:11.474Z,-5.1
2017-01-29T01:10:30.136Z,-5.1
2017-01-29T01:10:48.801Z,-5.1
2017-01-29T01:11:07.465Z,-5.1
2017-01-29T01:11:26.121Z,-5.1
2017-01-29T01:11:44.777Z,-5.1
2017-01-29T01:12:03.433Z,-5.1
2017-01-29T01:12:22.096Z,-5.1
2017-01-29T01:12:40.781Z,-5.1
2017-01-29T01:12:59.433Z,-5.1
2017-01-29T01:13:18.091Z,-5.1
2017-01-29T01:13:36.758Z,-5.1
2017-01-29T01:13:55.430Z,-5.1
2017-01-29T01:14:14.084Z,-5.1
2017-01-29T01:14:32.748Z,-5.2
2017-01-29T01:14:51.408Z,-5.2
2017-01-29T01:15:10.069Z,-5.3
2017-01-29T01:15:28.728Z,-5.3
2017-01-29T01:15:47.386Z,-5.4
2017-01-29T01:16:06.045Z,-5.4
2017-01-29T01:16:24.709Z,-5.4
2017-01-29T01:16:43.367Z,-5.4
2017-01-29T01:17:02.022Z,-5.5
2017-01-29T01:17:20.710Z,-5.5
2017-01-29T01:17:39.368Z,-5.5
2017-01-29T01:17:58.062Z,-5.5
2017-01-29T01:18:16.724Z,-5.5
2017-01-29T01:18:35.408Z,-5.5
2017-01-29T01:18:54.067Z,-5.5
2017-01-29T01:19:12.730Z,-5.5
2017-01-29T01:19:31.382Z,-5.5
2017-01-29T01:19:50.048Z,-5.5
2017-01-29T01:20:08.712Z,-5.5
2017-01-29T01:20:27.383Z,-5.4
2017-01-29T01:20:46.035Z,-5.4
2017-01-29T01:21:04.704Z,-5.4
2017-01-29T01:21:23.363Z,-5.4
2017-01-29T01:21:42.026Z,-5.4
2017-01-29T01:22:00.719Z,-5.4
2017-01-29T01:22:19.383Z,-5.5
2017-01-29T01:22:38.040Z,-5.5
2017-01-29T01:22:56.694Z,-5.5
2017-01-29T01:23:15.388Z,-5.5
2017-01-29T01:23:34.056Z,-5.5
2017-01-29T01:23:52.713Z,-5.6
2017-01-29T01:24:11.365Z,-5.6
2017-01-29T01:24:30.031Z,-5.7
2017-01-29T01:24:48.692Z,-5.7
2017-01-29T01:25:07.356Z,-5.7
2017-01-29T01:25:26.011Z,-5.7
2017-01-29T01:25:44.676Z,-5.7
2017-01-29T01:26:03.338Z,-5.7
2017-01-29T01:26:21.996Z,-5.7
2017-01-29T01:26:40.678Z,-5.7
2017-01-29T01:26:59.337Z,-5.6
2017-01-29T01:27:18.002Z,-5.5
2017-01-29T01:27:36.661Z,-5.5
2017-01-29T01:27:55.335Z,-5.5
2017-01-29T01:28:14.006Z,-5.4
2017-01-29T01:28:32.682Z,-5.4
2017-01-29T01:28:51.342Z,-5.4
2017-01-29T01:29:09.996Z,-5.4
2017-01-29T01:29:28.652Z,-5.4
2017-01-29T01:29:47.311Z,-5.5
2017-01-29T01:30:05.967Z,-5.5
2017-01-29T01:30:24.625Z,-5.5
2017-01-29T01:30:43.285Z,-5.5
2017-01-29T01:31:01.953Z,-5.5
2017-01-29T01:31:20.649Z,-5.5
2017-01-29T01:31:39.311Z,-5.6
2017-01-29T01:31:57.971Z,-5.6
2017-01-29T01:32:16.630Z,-5.6
2017-01-29T01:32:35.297Z,-5.7
2017-01-29T01:32:53.985Z,-5.7
2017-01-29T01:33:12.634Z,-5.7
2017-01-29T01:33:31.302Z,-5.7
2017-01-29T01:33:49.976Z,-5.7
2017-01-29T01:34:08.636Z,-5.7
2017-01-29T01:34:27.291Z,-5.7
2017-01-29T01:34:45.954Z,-5.7
2017-01-29T01:35:04.616Z,-5.7
2017-01-29T01:35:23.278Z,-5.7
2017-01-29T01:35:41.935Z,-5.7
2017-01-29T01:36:00.626Z,-5.7
2017-01-29T01:36:19.284Z,-5.7
2017-01-29T01:36:37.942Z,-5.7
2017-01-29T01:36:56.597Z,-5.8
2017-01-29T01:37:15.264Z,-5.8
2017-01-29T01:37:33.956Z,-5.9
2017-01-29T01:37:52.618Z,-5.9
2017-01-29T01:38:11.279Z,-5.9
2017-01-29T01:38:29.937Z,-5.9
2017-01-29T01:38:48.598Z,-6
2017-01-29T01:39:07.274Z,-6
2017-01-29T01:39:25.931Z,-6
2017-01-29T01:39:44.591Z,-6
2017-01-29T01:40:03.252Z,-6
2017-01-29T01:40:21.914Z,-6.1
2017-01-29T01:40:40.595Z,-6.1
2017-01-29T01:40:59.261Z,-6.1
2017-01-29T01:41:17.923Z,-6.1
2017-01-29T01:41:36.582Z,-6.1
2017-01-29T01:41:55.245Z,-6.1
2017-01-29T01:42:13.943Z,-6.2
2017-01-29T01:42:32.599Z,-6.2
2017-01-29T01:42:51.260Z,-6.2
2017-01-29T01:43:09.911Z,-6.2
2017-01-29T01:43:28.571Z,-6.2
2017-01-29T01:43:47.232Z,-6.2
2017-01-29T01:44:05.888Z,-6.2
2017-01-29T01:44:24.557Z,-6.2
2017-01-29T01:44:43.222Z,-6.2
2017-01-29T01:45:01.880Z,-6.1
2017-01-29T01:45:20.571Z,-6.1
2017-01-29T01:45:39.227Z,-6.1
2017-01-29T01:45:57.886Z,-6.1
2017-01-29T01:46:16.544Z,-6.1
2017-01-29T01:46:35.209Z,-6.1
2017-01-29T01:46:53.901Z,-6.1
2017-01-29T01:47:12.562Z,-6.1
2017-01-29T01:47:31.221Z,-6.1
2017-01-29T01:47:49.881Z,-6.1
2017-01-29T01:48:08.536Z,-6.1
2017-01-29T01:48:27.193Z,-6.1
2017-01-29T01:48:45.852Z,-6.1
2017-01-29T01:49:04.518Z,-6.1
2017-01-29T01:49:23.171Z,-6.1
2017-01-29T01:49:41.840Z,-6.1
2017-01-29T01:50:00.525Z,-6
2017-01-29T01:50:19.184Z,-6
2017-01-29T01:50:37.843Z,-6
2017-01-29T01:50:56.520Z,-6
2017-01-29T01:51:15.179Z,-6
2017-01-29T01:51:33.873Z,-6
2017-01-29T01:51:52.522Z,-6
2017-01-29T01:52:11.188Z,-6
2017-01-29T01:52:29.845Z,-6
2017-01-29T01:52:48.508Z,-5.9
2017-01-29T01:53:07.170Z,-5.9
2017-01-29T01:53:25.839Z,-5.8
2017-01-29T01:53:44.504Z,-5.7
2017-01-29T01:54:03.161Z,-5.7
2017-01-29T01:54:21.819Z,-5.6
2017-01-29T01:54:40.515Z,-5.6
2017-01-29T01:54:59.183Z,-5.5
2017-01-29T01:55:17.839Z,-5.4
2017-01-29T01:55:36.491Z,-5.4
2017-01-29T01:55:55.148Z,-5.4
2017-01-29T01:56:13.840Z,-5.4
2017-01-29T01:56:32.497Z,-5.4
2017-01-29T01:56:51.152Z,-5.4
2017-01-29T01:57:09.809Z,-5.5
2017-01-29T01:57:28.474Z,-5.5
2017-01-29T01:57:47.129Z,-5.5
2017-01-29T01:58:05.789Z,-5.6
2017-01-29T01:58:24.447Z,-5.6
2017-01-29T01:58:43.106Z,-5.6
2017-01-29T01:59:01.763Z,-5.7
2017-01-29T01:59:20.448Z,-5.6
2017-01-29T01:59:39.108Z,-5.6
2017-01-29T01:59:57.765Z,-5.6
2017-01-29T02:00:16.428Z,-5.6
2017-01-29T02:00:35.082Z,-5.6
2017-01-29T02:00:53.778Z,-5.6
2017-01-29T02:01:12.440Z,-5.7
2017-01-29T02:01:31.105Z,-5.7
2017-01-29T02:01:49.775Z,-5.7
2017-01-29T02:02:08.434Z,-5.7
2017-01-29T02:02:27.096Z,-5.8
2017-01-29T02:02:45.749Z,-5.8
2017-01-29T02:03:04.408Z,-5.8
2017-01-29T02:03:23.070Z,-5.8
2017-01-29T02:03:41.731Z,-5.8
2017-01-29T02:04:00.415Z,-5.7
2017-01-29T02:04:19.075Z,-5.7
2017-01-29T02:04:37.740Z,-5.6
2017-01-29T02:04:56.398Z,-5.7
2017-01-29T02:05:15.056Z,-5.7
2017-01-29T02:05:33.768Z,-5.7
2017-01-29T02:05:52.426Z,-5.7
2017-01-29T02:06:11.090Z,-5.7
2017-01-29T02:06:29.746Z,-5.7
2017-01-29T02:06:48.433Z,-5.7
2017-01-29T02:07:07.093Z,-5.7
2017-01-29T02:07:25.756Z,-5.7
2017-01-29T02:07:44.411Z,-5.7
2017-01-29T02:08:03.071Z,-5.7
2017-01-29T02:08:21.731Z,-5.7
2017-01-29T02:08:40.418Z,-5.7
2017-01-29T02:08:59.076Z,-5.7
2017-01-29T02:09:17.732Z,-5.7
2017-01-29T02:09:36.391Z,-5.7
2017-01-29T02:09:55.052Z,-5.7
2017-01-29T02:10:13.763Z,-5.7
2017-01-29T02:10:32.432Z,-5.7
2017-01-29T02:10:51.100Z,-5.7
2017-01-29T02:11:09.756Z,-5.7
2017-01-29T02:11:28.413Z,-5.7
2017-01-29T02:11:47.079Z,-5.7
2017-01-29T02:12:05.738Z,-5.7
2017-01-29T02:12:24.398Z,-5.7
2017-01-29T02:12:43.052Z,-5.7
2017-01-29T02:13:01.715Z,-5.7
2017-01-29T02:13:20.403Z,-5.7
2017-01-29T02:13:39.067Z,-5.7
2017-01-29T02:13:57.726Z,-5.7
2017-01-29T02:14:16.384Z,-5.7
2017-01-29T02:14:35.042Z,-5.7
2017-01-29T02:14:53.738Z,-5.7
2017-01-29T02:15:12.393Z,-5.7
2017-01-29T02:15:31.052Z,-5.6
2017-01-29T02:15:49.709Z,-5.6
2017-01-29T02:16:08.378Z,-5.6
2017-01-29T02:16:27.036Z,-5.7
2017-01-29T02:16:45.699Z,-5.7
2017-01-29T02:17:04.366Z,-5.7
2017-01-29T02:17:23.024Z,-5.7
2017-01-29T02:17:41.679Z,-5.6
2017-01-29T02:18:00.370Z,-5.6
2017-01-29T02:18:19.029Z,-5.5
2017-01-29T02:18:37.682Z,-5.5
2017-01-29T02:18:56.342Z,-5.5
2017-01-29T02:19:15.004Z,-5.5
2017-01-29T02:19:33.703Z,-5.5
2017-01-29T02:19:52.355Z,-5.5
2017-01-29T02:20:11.010Z,-5.5
2017-01-29T02:20:29.669Z,-5.5
2017-01-29T02:20:48.329Z,-5.5
2017-01-29T02:21:06.982Z,-5.5
2017-01-29T02:21:25.666Z,-5.5
2017-01-29T02:21:44.332Z,-5.5
2017-01-29T02:22:02.994Z,-5.5
2017-01-29T02:22:21.651Z,-5.6
2017-01-29T02:22:40.339Z,-5.6
2017-01-29T02:22:58.998Z,-5.7
2017-01-29T02:23:17.665Z,-5.7
2017-01-29T02:23:36.319Z,-5.7
2017-01-29T02:23:54.977Z,-5.8
2017-01-29T02:24:13.671Z,-5.8
2017-01-29T02:24:32.329Z,-5.8
2017-01-29T02:24:50.987Z,-5.8
2017-01-29T02:25:09.649Z,-5.8
2017-01-29T02:25:28.308Z,-5.8
2017-01-29T02:25:46.993Z,-5.8
2017-01-29T02:26:05.651Z,-5.8
2017-01-29T02:26:24.314Z,-5.7
2017-01-29T02:26:42.979Z,-5.7
2017-01-29T02:27:01.640Z,-5.7
2017-01-29T02:27:20.324Z,-5.7
2017-01-29T02:27:38.976Z,-5.7
2017-01-29T02:27:57.637Z,-5.7
2017-01-29T02:28:16.296Z,-5.7
2017-01-29T02:28:34.958Z,-5.7
2017-01-29T02:28:53.657Z,-5.7
2017-01-29T02:29:12.314Z,-5.7
2017-01-29T02:29:30.973Z,-5.7
2017-01-29T02:29:49.632Z,-5.7
2017-01-29T02:30:08.294Z,-5.7
2017-01-29T02:30:26.950Z,-5.7
2017-01-29T02:30:45.610Z,-5.8
2017-01-29T02:31:04.274Z,-5.8
2017-01-29T02:31:22.929Z,-5.9
2017-01-29T02:31:41.595Z,-5.9
2017-01-29T02:32:00.308Z,-5.9
2017-01-29T02:32:18.967Z,-6
2017-01-29T02:32:37.622Z,-6
2017-01-29T02:32:56.281Z,-6
2017-01-29T02:33:14.941Z,-6
2017-01-29T02:33:33.634Z,-6
2017-01-29T02:33:52.285Z,-5.9
2017-01-29T02:34:10.950Z,-5.9
2017-01-29T02:34:29.609Z,-5.9
2017-01-29T02:34:48.270Z,-5.9
2017-01-29T02:35:06.935Z,-5.8
2017-01-29T02:35:25.594Z,-5.7
2017-01-29T02:35:44.254Z,-5.7
2017-01-29T02:36:02.911Z,-5.7
2017-01-29T02:36:21.565Z,-5.7
2017-01-29T02:36:40.259Z,-5.7
2017-01-29T02:36:58.917Z,-5.7
2017-01-29T02:37:17.580Z,-5.7
2017-01-29T02:37:36.241Z,-5.7
2017-01-29T02:37:54.898Z,-5.7
2017-01-29T02:38:13.559Z,-5.7
2017-01-29T02:38:32.217Z,-5.7
2017-01-29T02:38:50.880Z,-5.7
2017-01-29T02:39:09.534Z,-5.7
2017-01-29T02:39:28.196Z,-5.7
2017-01-29T02:39:46.856Z,-5.7
2017-01-29T02:40:05.517Z,-5.7
2017-01-29T02:40:24.169Z,-5.6
2017-01-29T02:40:42.823Z,-5.6
2017-01-29T02:41:01.488Z,-5.6
2017-01-29T02:41:20.175Z,-5.5
2017-01-29T02:41:38.841Z,-5.5
2017-01-29T02:41:57.500Z,-5.5
2017-01-29T02:42:16.155Z,-5.5
2017-01-29T02:42:34.830Z,-5.5
2017-01-29T02:42:53.491Z,-5.5
2017-01-29T02:43:12.153Z,-5.5
2017-01-29T02:43:30.818Z,-5.5
2017-01-29T02:43:49.470Z,-5.4
2017-01-29T02:44:08.133Z,-5.4
2017-01-29T02:44:26.791Z,-5.3
2017-01-29T02:44:45.454Z,-5.3
2017-01-29T02:45:04.111Z,-5.3
2017-01-29T02:45:22.767Z,-5.3
2017-01-29T02:45:41.425Z,-5.3
2017-01-29T02:46:00.110Z,-5.3
2017-01-29T02:46:18.776Z,-5.2
2017-01-29T02:46:37.430Z,-5.2
2017-01-29T02:46:56.095Z,-5.2
2017-01-29T02:47:14.756Z,-5.2
2017-01-29T02:47:33.418Z,-5.2
2017-01-29T02:47:52.081Z,-5.2
2017-01-29T02:48:10.759Z,-5.1
2017-01-29T02:48:29.418Z,-5.1
2017-01-29T02:48:48.077Z,-5
2017-01-29T02:49:06.732Z,-5
2017-01-29T02:49:25.396Z,-5
2017-01-29T02:49:44.059Z,-5
2017-01-29T02:50:02.721Z,-5
2017-01-29T02:50:21.382Z,-5
2017-01-29T02:50:40.064Z,-5
2017-01-29T02:50:58.727Z,-5
2017-01-29T02:51:17.385Z,-5.1
2017-01-29T02:51:36.040Z,-5.1
2017-01-29T02:51:54.725Z,-5.1
2017-01-29T02:52:13.384Z,-5.2
2017-01-29T02:52:32.044Z,-5.2
2017-01-29T02:52:50.709Z,-5.2
2017-01-29T02:53:09.384Z,-5.2
2017-01-29T02:53:28.047Z,-5.2
2017-01-29T02:53:46.707Z,-5.2
2017-01-29T02:54:05.366Z,-5.2
2017-01-29T02:54:24.023Z,-5.2
2017-01-29T02:54:42.679Z,-5.2
2017-01-29T02:55:01.338Z,-5.2
2017-01-29T02:55:20.012Z,-5.2
2017-01-29T02:55:38.681Z,-5.2
2017-01-29T02:55:57.337Z,-5.2
2017-01-29T02:56:15.996Z,-5.2
2017-01-29T02:56:34.648Z,-5.2
2017-01-29T02:56:53.313Z,-5.2
2017-01-29T02:57:11.970Z,-5.2
2017-01-29T02:57:30.628Z,-5.2
2017-01-29T02:57:49.287Z,-5.2
2017-01-29T02:58:07.945Z,-5.2
2017-01-29T02:58:26.617Z,-5.2
2017-01-29T02:58:45.314Z,-5.2
2017-01-29T02:59:03.975Z,-5.2
2017-01-29T02:59:22.643Z,-5.2
2017-01-29T02:59:41.305Z,-5.2
2017-01-29T02:59:59.978Z,-5.2
2017-01-29T03:00:18.632Z,-5.2
2017-01-29T03:00:37.296Z,-5.2
2017-01-29T03:00:55.950Z,-5.2
2017-01-29T03:01:14.607Z,-5.2
2017-01-29T03:01:33.267Z,-5.2
2017-01-29T03:01:51.924Z,-5.2
2017-01-29T03:02:10.584Z,-5.2
2017-01-29T03:02:29.243Z,-5.2
2017-01-29T03:02:47.903Z,-5.2
2017-01-29T03:03:06.571Z,-5.2
2017-01-29T03:03:25.266Z,-5.2
2017-01-29T03:03:43.923Z,-5.3
2017-01-29T03:04:02.581Z,-5.3
2017-01-29T03:04:21.243Z,-5.3
2017-01-29T03:04:39.911Z,-5.3
2017-01-29T03:04:58.594Z,-5.3
2017-01-29T03:05:17.250Z,-5.3
2017-01-29T03:05:35.916Z,-5.2
2017-01-29T03:05:54.572Z,-5.2
2017-01-29T03:06:13.232Z,-5.2
2017-01-29T03:06:31.885Z,-5.2
2017-01-29T03:06:50.546Z,-5.2
2017-01-29T03:07:09.226Z,-5.2
2017-01-29T03:07:27.889Z,-5.2
2017-01-29T03:07:46.548Z,-5.2
2017-01-29T03:08:05.240Z,-5.2
2017-01-29T03:08:23.898Z,-5.2
2017-01-29T03:08:42.583Z,-5.2
2017-01-29T03:09:01.250Z,-5.2
2017-01-29T03:09:19.923Z,-5.2
2017-01-29T03:09:38.584Z,-5.2
2017-01-29T03:09:57.248Z,-5.2
2017-01-29T03:10:15.904Z,-5.2
2017-01-29T03:10:34.568Z,-5.2
2017-01-29T03:10:53.221Z,-5.1
2017-01-29T03:11:11.877Z,-5.1
2017-01-29T03:11:30.534Z,-5
2017-01-29T03:11:49.192Z,-5
2017-01-29T03:12:07.854Z,-5
2017-01-29T03:12:26.509Z,-5
2017-01-29T03:12:45.191Z,-5
2017-01-29T03:13:03.843Z,-5
2017-01-29T03:13:22.496Z,-5.1
2017-01-29T03:13:41.151Z,-5.1
2017-01-29T03:13:59.812Z,-5.1
2017-01-29T03:14:18.510Z,-5.1
2017-01-29T03:14:37.168Z,-5.1
2017-01-29T03:14:55.827Z,-5
2017-01-29T03:15:14.479Z,-4.9
2017-01-29T03:15:33.141Z,-4.9
2017-01-29T03:15:51.800Z,-4.9
2017-01-29T03:16:10.460Z,-4.9
2017-01-29T03:16:29.121Z,-4.9
2017-01-29T03:16:47.787Z,-4.9
2017-01-29T03:17:06.448Z,-4.9
2017-01-29T03:17:25.145Z,-4.9
2017-01-29T03:17:43.800Z,-4.9
2017-01-29T03:18:02.468Z,-4.9
2017-01-29T03:18:21.126Z,-4.9
2017-01-29T03:18:39.778Z,-4.9
2017-01-29T03:18:58.469Z,-4.9
2017-01-29T03:19:17.135Z,-4.9
2017-01-29T03:19:35.816Z,-4.9
2017-01-29T03:19:54.471Z,-4.9
2017-01-29T03:20:13.133Z,-4.9
2017-01-29T03:20:31.806Z,-4.9
2017-01-29T03:20:50.468Z,-4.9
2017-01-29T03:21:09.129Z,-4.9
2017-01-29T03:21:27.783Z,-5
2017-01-29T03:21:46.450Z,-4.9
2017-01-29T03:22:05.145Z,-5
2017-01-29T03:22:23.816Z,-5
2017-01-29T03:22:42.474Z,-5
2017-01-29T03:23:01.133Z,-5
2017-01-29T03:23:19.798Z,-4.9
2017-01-29T03:23:38.498Z,-4.9
2017-01-29T03:23:57.157Z,-4.9
2017-01-29T03:24:15.814Z,-4.9
2017-01-29T03:24:34.470Z,-4.9
2017-01-29T03:24:53.135Z,-4.9
2017-01-29T03:25:11.796Z,-4.8
2017-01-29T03:25:30.453Z,-4.8
2017-01-29T03:25:49.109Z,-4.9
2017-01-29T03:26:07.764Z,-4.9
2017-01-29T03:26:26.431Z,-4.9
2017-01-29T03:26:45.124Z,-4.9
2017-01-29T03:27:03.783Z,-4.9
2017-01-29T03:27:22.447Z,-4.8
2017-01-29T03:27:41.114Z,-4.8
2017-01-29T03:27:59.775Z,-4.8
2017-01-29T03:28:18.476Z,-4.8
2017-01-29T03:28:37.132Z,-4.8
2017-01-29T03:28:55.793Z,-4.8
2017-01-29T03:29:14.450Z,-4.9
2017-01-29T03:29:33.107Z,-4.9
2017-01-29T03:29:51.770Z,-4.9
2017-01-29T03:30:10.457Z,-4.9
2017-01-29T03:30:29.111Z,-5
2017-01-29T03:30:47.773Z,-5
2017-01-29T03:31:06.431Z,-5
2017-01-29T03:31:25.118Z,-5
2017-01-29T03:31:43.785Z,-4.9
2017-01-29T03:32:02.446Z,-4.9
2017-01-29T03:32:21.107Z,-4.9
2017-01-29T03:32:39.780Z,-4.9
2017-01-29T03:32:58.466Z,-4.9
2017-01-29T03:33:17.121Z,-4.9
2017-01-29T03:33:35.783Z,-4.9
2017-01-29T03:33:54.437Z,-4.9
2017-01-29T03:34:13.094Z,-4.9
2017-01-29T03:34:31.751Z,-4.9
2017-01-29T03:34:50.408Z,-4.9
2017-01-29T03:35:09.071Z,-5
2017-01-29T03:35:27.745Z,-5
2017-01-29T03:35:46.397Z,-5
2017-01-29T03:36:05.083Z,-5
2017-01-29T03:36:23.743Z,-5
2017-01-29T03:36:42.402Z,-5
2017-01-29T03:37:01.060Z,-5
2017-01-29T03:37:19.712Z,-5
2017-01-29T03:37:38.420Z,-4.9
2017-01-29T03:37:57.087Z,-4.9
2017-01-29T03:38:15.737Z,-4.8
2017-01-29T03:38:34.390Z,-4.8
2017-01-29T03:38:53.051Z,-4.8
2017-01-29T03:39:11.705Z,-4.9
2017-01-29T03:39:30.366Z,-4.9
2017-01-29T03:39:49.025Z,-4.9
2017-01-29T03:40:07.682Z,-4.9
2017-01-29T03:40:26.344Z,-4.9
2017-01-29T03:40:45.054Z,-4.9
2017-01-29T03:41:03.720Z,-4.8
2017-01-29T03:41:22.379Z,-4.8
2017-01-29T03:41:41.033Z,-4.8
2017-01-29T03:41:59.691Z,-4.7
2017-01-29T03:42:18.403Z,-4.7
2017-01-29T03:42:37.067Z,-4.7
2017-01-29T03:42:55.724Z,-4.8
2017-01-29T03:43:14.383Z,-4.8
2017-01-29T03:43:33.040Z,-4.9
2017-01-29T03:43:51.705Z,-4.9
2017-01-29T03:44:10.364Z,-4.9
2017-01-29T03:44:29.023Z,-4.9
2017-01-29T03:44:47.688Z,-5
2017-01-29T03:45:06.354Z,-4.9
2017-01-29T03:45:25.049Z,-4.9
2017-01-29T03:45:43.703Z,-4.9
2017-01-29T03:46:02.382Z,-4.9
2017-01-29T03:46:21.050Z,-5
2017-01-29T03:46:39.716Z,-5
2017-01-29T03:46:58.408Z,-4.9
2017-01-29T03:47:17.067Z,-4.9
2017-01-29T03:47:35.730Z,-4.8
2017-01-29T03:47:54.387Z,-4.8
2017-01-29T03:48:13.047Z,-4.8
2017-01-29T03:48:31.709Z,-4.8
2017-01-29T03:48:50.368Z,-4.8
2017-01-29T03:49:09.023Z,-4.8
2017-01-29T03:49:27.681Z,-4.8
2017-01-29T03:49:46.346Z,-4.8
2017-01-29T03:50:05.042Z,-4.7
2017-01-29T03:50:23.702Z,-4.7
2017-01-29T03:50:42.366Z,-4.7
2017-01-29T03:51:01.032Z,-4.7
2017-01-29T03:51:19.708Z,-4.7
2017-01-29T03:51:38.383Z,-4.7
2017-01-29T03:51:57.042Z,-4.7
2017-01-29T03:52:15.704Z,-4.7
2017-01-29T03:52:34.373Z,-4.7
2017-01-29T03:52:53.054Z,-4.6
2017-01-29T03:53:11.715Z,-4.6
2017-01-29T03:53:30.375Z,-4.5
2017-01-29T03:53:49.041Z,-4.5
2017-01-29T03:54:07.696Z,-4.5
2017-01-29T03:54:26.363Z,-4.5
2017-01-29T03:54:45.058Z,-4.5
2017-01-29T03:55:03.714Z,-4.5
2017-01-29T03:55:22.367Z,-4.5
2017-01-29T03:55:41.023Z,-4.5
2017-01-29T03:55:59.702Z,-4.5
2017-01-29T03:56:18.375Z,-4.5
2017-01-29T03:56:37.048Z,-4.5
2017-01-29T03:56:55.704Z,-4.5
2017-01-29T03:57:14.360Z,-4.6
2017-01-29T03:57:33.021Z,-4.7
2017-01-29T03:57:51.678Z,-4.7
2017-01-29T03:58:10.343Z,-4.7
2017-01-29T03:58:28.999Z,-4.7
2017-01-29T03:58:47.661Z,-4.7
2017-01-29T03:59:06.320Z,-4.7
2017-01-29T03:59:25.011Z,-4.7
2017-01-29T03:59:43.672Z,-4.7
2017-01-29T04:00:02.325Z,-4.7
2017-01-29T04:00:20.988Z,-4.7
2017-01-29T04:00:39.658Z,-4.7
2017-01-29T04:00:58.346Z,-4.7
2017-01-29T04:01:16.999Z,-4.7
2017-01-29T04:01:35.651Z,-4.7
2017-01-29T04:01:54.315Z,-4.7
2017-01-29T04:02:12.975Z,-4.7
2017-01-29T04:02:31.637Z,-4.7
2017-01-29T04:02:50.290Z,-4.7
2017-01-29T04:03:08.951Z,-4.7
2017-01-29T04:03:27.607Z,-4.7
2017-01-29T04:03:46.268Z,-4.7
2017-01-29T04:04:04.960Z,-4.7
2017-01-29T04:04:23.623Z,-4.7
2017-01-29T04:04:42.279Z,-4.7
2017-01-29T04:05:00.938Z,-4.7
2017-01-29T04:05:19.597Z,-4.7
2017-01-29T04:05:38.291Z,-4.7
2017-01-29T04:05:56.950Z,-4.7
2017-01-29T04:06:15.610Z,-4.6
2017-01-29T04:06:34.271Z,-4.6
2017-01-29T04:06:52.929Z,-4.5
2017-01-29T04:07:11.607Z,-4.5
2017-01-29T04:07:30.263Z,-4.5
2017-01-29T04:07:48.928Z,-4.5
2017-01-29T04:08:07.602Z,-4.5
2017-01-29T04:08:26.264Z,-4.5
2017-01-29T04:08:44.945Z,-4.5
2017-01-29T04:09:03.621Z,-4.5
2017-01-29T04:09:22.278Z,-4.5
2017-01-29T04:09:40.934Z,-4.5
2017-01-29T04:09:59.597Z,-4.5
2017-01-29T04:10:18.315Z,-4.5